sensor_id;sensor_type;location;lat;lon;timestamp;P1;durP1;ratioP1;P2;durP2;ratioP2
60352;SDS011;46196;52.970;6.954;2023-06-10T00:00:33;20.73;;;7.90;;
60352;SDS011;46196;52.970;6.954;2023-06-10T00:02:59;16.65;;;7.70;;
60352;SDS011;46196;52.970;6.954;2023-06-10T00:05:25;22.92;;;8.80;;
60352;SDS011;46196;52.970;6.954;2023-06-10T00:07:51;21.45;;;8.15;;
60352;SDS011;46196;52.970;6.954;2023-06-10T00:10:20;18.35;;;7.93;;
60352;SDS011;46196;52.970;6.954;2023-06-10T00:12:45;17.40;;;7.75;;
60352;SDS011;46196;52.970;6.954;2023-06-10T00:15:11;22.95;;;7.70;;
60352;SDS011;46196;52.970;6.954;2023-06-10T00:17:37;15.00;;;7.30;;
60352;SDS011;46196;52.970;6.954;2023-06-10T00:20:05;19.30;;;8.07;;
60352;SDS011;46196;52.970;6.954;2023-06-10T00:22:34;16.60;;;7.72;;
60352;SDS011;46196;52.970;6.954;2023-06-10T00:25:00;16.98;;;7.43;;
60352;SDS011;46196;52.970;6.954;2023-06-10T00:27:25;16.33;;;7.88;;
60352;SDS011;46196;52.970;6.954;2023-06-10T00:29:56;16.13;;;7.70;;
60352;SDS011;46196;52.970;6.954;2023-06-10T00:32:22;15.82;;;7.88;;
60352;SDS011;46196;52.970;6.954;2023-06-10T00:34:47;14.73;;;7.47;;
60352;SDS011;46196;52.970;6.954;2023-06-10T00:37:13;19.67;;;7.55;;
60352;SDS011;46196;52.970;6.954;2023-06-10T00:39:38;20.15;;;7.70;;
60352;SDS011;46196;52.970;6.954;2023-06-10T00:42:04;20.75;;;8.25;;
60352;SDS011;46196;52.970;6.954;2023-06-10T00:44:32;23.23;;;7.90;;
60352;SDS011;46196;52.970;6.954;2023-06-10T00:46:57;20.55;;;7.85;;
60352;SDS011;46196;52.970;6.954;2023-06-10T00:49:23;18.88;;;9.10;;
60352;SDS011;46196;52.970;6.954;2023-06-10T00:51:50;16.08;;;7.60;;
60352;SDS011;46196;52.970;6.954;2023-06-10T00:54:17;14.10;;;7.55;;
60352;SDS011;46196;52.970;6.954;2023-06-10T00:56:43;18.23;;;8.60;;
60352;SDS011;46196;52.970;6.954;2023-06-10T00:59:09;17.77;;;7.90;;
60352;SDS011;46196;52.970;6.954;2023-06-10T01:01:35;18.00;;;8.60;;
60352;SDS011;46196;52.970;6.954;2023-06-10T01:04:02;19.15;;;8.13;;
60352;SDS011;46196;52.970;6.954;2023-06-10T01:06:44;16.83;;;7.25;;
60352;SDS011;46196;52.970;6.954;2023-06-10T01:12:20;20.58;;;8.02;;
60352;SDS011;46196;52.970;6.954;2023-06-10T01:14:50;19.80;;;7.70;;
60352;SDS011;46196;52.970;6.954;2023-06-10T01:17:16;19.73;;;7.85;;
60352;SDS011;46196;52.970;6.954;2023-06-10T01:19:43;14.27;;;7.53;;
60352;SDS011;46196;52.970;6.954;2023-06-10T01:22:09;15.88;;;7.18;;
60352;SDS011;46196;52.970;6.954;2023-06-10T01:24:36;16.02;;;8.25;;
60352;SDS011;46196;52.970;6.954;2023-06-10T01:27:05;20.55;;;8.23;;
60352;SDS011;46196;52.970;6.954;2023-06-10T01:29:40;22.98;;;8.27;;
60352;SDS011;46196;52.970;6.954;2023-06-10T01:32:15;22.75;;;7.88;;
60352;SDS011;46196;52.970;6.954;2023-06-10T01:34:46;18.95;;;8.82;;
60352;SDS011;46196;52.970;6.954;2023-06-10T01:37:15;20.55;;;7.63;;
60352;SDS011;46196;52.970;6.954;2023-06-10T01:39:45;21.02;;;8.07;;
60352;SDS011;46196;52.970;6.954;2023-06-10T01:42:12;18.75;;;7.97;;
60352;SDS011;46196;52.970;6.954;2023-06-10T01:44:39;18.98;;;7.47;;
60352;SDS011;46196;52.970;6.954;2023-06-10T01:47:05;20.80;;;8.00;;
60352;SDS011;46196;52.970;6.954;2023-06-10T01:49:30;17.90;;;7.85;;
60352;SDS011;46196;52.970;6.954;2023-06-10T01:51:56;18.67;;;8.13;;
60352;SDS011;46196;52.970;6.954;2023-06-10T01:54:22;15.30;;;7.70;;
60352;SDS011;46196;52.970;6.954;2023-06-10T01:56:47;21.42;;;8.10;;
60352;SDS011;46196;52.970;6.954;2023-06-10T01:59:13;23.02;;;8.85;;
60352;SDS011;46196;52.970;6.954;2023-06-10T02:01:38;22.23;;;8.45;;
60352;SDS011;46196;52.970;6.954;2023-06-10T02:04:04;19.55;;;7.80;;
60352;SDS011;46196;52.970;6.954;2023-06-10T02:06:30;18.17;;;7.35;;
60352;SDS011;46196;52.970;6.954;2023-06-10T02:08:56;22.10;;;7.65;;
60352;SDS011;46196;52.970;6.954;2023-06-10T02:11:21;21.33;;;8.43;;
60352;SDS011;46196;52.970;6.954;2023-06-10T02:13:47;13.07;;;7.90;;
60352;SDS011;46196;52.970;6.954;2023-06-10T02:16:12;18.73;;;8.20;;
60352;SDS011;46196;52.970;6.954;2023-06-10T02:18:39;13.50;;;7.07;;
60352;SDS011;46196;52.970;6.954;2023-06-10T02:21:07;18.98;;;7.75;;
60352;SDS011;46196;52.970;6.954;2023-06-10T02:23:33;26.58;;;8.80;;
60352;SDS011;46196;52.970;6.954;2023-06-10T02:26:00;17.00;;;7.70;;
60352;SDS011;46196;52.970;6.954;2023-06-10T02:28:25;17.08;;;7.68;;
60352;SDS011;46196;52.970;6.954;2023-06-10T02:30:51;20.00;;;7.88;;
60352;SDS011;46196;52.970;6.954;2023-06-10T02:33:17;25.50;;;8.68;;
60352;SDS011;46196;52.970;6.954;2023-06-10T02:35:43;20.45;;;8.32;;
60352;SDS011;46196;52.970;6.954;2023-06-10T02:38:10;20.60;;;8.63;;
60352;SDS011;46196;52.970;6.954;2023-06-10T02:40:35;18.42;;;7.78;;
60352;SDS011;46196;52.970;6.954;2023-06-10T02:43:01;17.52;;;8.70;;
60352;SDS011;46196;52.970;6.954;2023-06-10T02:45:27;17.73;;;8.02;;
60352;SDS011;46196;52.970;6.954;2023-06-10T02:47:52;17.30;;;7.80;;
60352;SDS011;46196;52.970;6.954;2023-06-10T02:50:18;21.30;;;8.68;;
60352;SDS011;46196;52.970;6.954;2023-06-10T02:52:44;18.15;;;8.70;;
60352;SDS011;46196;52.970;6.954;2023-06-10T02:55:09;20.75;;;7.85;;
60352;SDS011;46196;52.970;6.954;2023-06-10T02:57:35;23.95;;;8.63;;
60352;SDS011;46196;52.970;6.954;2023-06-10T03:00:01;20.60;;;7.97;;
60352;SDS011;46196;52.970;6.954;2023-06-10T03:02:29;23.05;;;7.88;;
60352;SDS011;46196;52.970;6.954;2023-06-10T03:04:56;22.77;;;8.27;;
60352;SDS011;46196;52.970;6.954;2023-06-10T03:07:23;25.83;;;8.88;;
60352;SDS011;46196;52.970;6.954;2023-06-10T03:09:49;15.30;;;8.13;;
60352;SDS011;46196;52.970;6.954;2023-06-10T03:12:15;20.05;;;7.93;;
60352;SDS011;46196;52.970;6.954;2023-06-10T03:14:41;21.25;;;7.95;;
60352;SDS011;46196;52.970;6.954;2023-06-10T03:17:07;18.83;;;7.90;;
60352;SDS011;46196;52.970;6.954;2023-06-10T03:19:36;15.57;;;8.40;;
60352;SDS011;46196;52.970;6.954;2023-06-10T03:22:13;20.52;;;8.52;;
60352;SDS011;46196;52.970;6.954;2023-06-10T03:24:40;24.88;;;9.40;;
60352;SDS011;46196;52.970;6.954;2023-06-10T03:27:12;19.73;;;8.35;;
60352;SDS011;46196;52.970;6.954;2023-06-10T03:29:38;16.73;;;8.93;;
60352;SDS011;46196;52.970;6.954;2023-06-10T03:32:04;25.98;;;9.27;;
60352;SDS011;46196;52.970;6.954;2023-06-10T03:34:31;19.42;;;9.02;;
60352;SDS011;46196;52.970;6.954;2023-06-10T03:36:57;23.27;;;8.10;;
60352;SDS011;46196;52.970;6.954;2023-06-10T03:39:23;23.63;;;8.32;;
60352;SDS011;46196;52.970;6.954;2023-06-10T03:41:49;15.60;;;8.35;;
60352;SDS011;46196;52.970;6.954;2023-06-10T03:44:15;17.80;;;8.13;;
60352;SDS011;46196;52.970;6.954;2023-06-10T03:46:41;19.63;;;9.77;;
60352;SDS011;46196;52.970;6.954;2023-06-10T03:49:06;20.75;;;8.45;;
60352;SDS011;46196;52.970;6.954;2023-06-10T03:51:32;19.85;;;9.20;;
60352;SDS011;46196;52.970;6.954;2023-06-10T03:53:58;20.83;;;8.88;;
60352;SDS011;46196;52.970;6.954;2023-06-10T03:56:23;24.20;;;9.25;;
60352;SDS011;46196;52.970;6.954;2023-06-10T03:58:49;19.17;;;8.82;;
60352;SDS011;46196;52.970;6.954;2023-06-10T04:01:14;20.13;;;9.45;;
60352;SDS011;46196;52.970;6.954;2023-06-10T04:03:43;19.70;;;8.90;;
60352;SDS011;46196;52.970;6.954;2023-06-10T04:06:09;20.50;;;8.95;;
60352;SDS011;46196;52.970;6.954;2023-06-10T04:08:34;25.65;;;9.45;;
60352;SDS011;46196;52.970;6.954;2023-06-10T04:11:01;20.48;;;9.07;;
60352;SDS011;46196;52.970;6.954;2023-06-10T04:13:27;26.65;;;9.02;;
60352;SDS011;46196;52.970;6.954;2023-06-10T04:15:53;20.70;;;8.23;;
60352;SDS011;46196;52.970;6.954;2023-06-10T04:18:19;22.58;;;10.00;;
60352;SDS011;46196;52.970;6.954;2023-06-10T04:20:45;17.67;;;8.23;;
60352;SDS011;46196;52.970;6.954;2023-06-10T04:23:11;23.27;;;9.50;;
60352;SDS011;46196;52.970;6.954;2023-06-10T04:25:36;20.48;;;9.35;;
60352;SDS011;46196;52.970;6.954;2023-06-10T04:28:02;29.35;;;10.15;;
60352;SDS011;46196;52.970;6.954;2023-06-10T04:30:28;23.83;;;9.00;;
60352;SDS011;46196;52.970;6.954;2023-06-10T04:32:53;22.98;;;9.60;;
60352;SDS011;46196;52.970;6.954;2023-06-10T04:35:19;23.20;;;9.85;;
60352;SDS011;46196;52.970;6.954;2023-06-10T04:37:45;20.50;;;9.20;;
60352;SDS011;46196;52.970;6.954;2023-06-10T04:40:10;23.42;;;10.18;;
60352;SDS011;46196;52.970;6.954;2023-06-10T04:42:36;21.98;;;9.52;;
60352;SDS011;46196;52.970;6.954;2023-06-10T04:45:02;25.40;;;8.73;;
60352;SDS011;46196;52.970;6.954;2023-06-10T04:47:31;22.95;;;9.68;;
60352;SDS011;46196;52.970;6.954;2023-06-10T04:49:58;20.63;;;9.02;;
60352;SDS011;46196;52.970;6.954;2023-06-10T04:52:25;20.95;;;10.02;;
60352;SDS011;46196;52.970;6.954;2023-06-10T04:54:50;25.17;;;10.00;;
60352;SDS011;46196;52.970;6.954;2023-06-10T04:57:16;26.50;;;11.10;;
60352;SDS011;46196;52.970;6.954;2023-06-10T04:59:41;26.92;;;10.45;;
60352;SDS011;46196;52.970;6.954;2023-06-10T05:02:07;23.80;;;9.68;;
60352;SDS011;46196;52.970;6.954;2023-06-10T05:04:33;22.20;;;10.63;;
60352;SDS011;46196;52.970;6.954;2023-06-10T05:06:59;17.45;;;10.77;;
60352;SDS011;46196;52.970;6.954;2023-06-10T05:09:24;25.05;;;10.05;;
60352;SDS011;46196;52.970;6.954;2023-06-10T05:11:51;17.42;;;8.88;;
60352;SDS011;46196;52.970;6.954;2023-06-10T05:14:18;20.23;;;9.40;;
60352;SDS011;46196;52.970;6.954;2023-06-10T05:16:46;23.15;;;10.45;;
60352;SDS011;46196;52.970;6.954;2023-06-10T05:19:12;20.85;;;9.70;;
60352;SDS011;46196;52.970;6.954;2023-06-10T05:21:38;26.17;;;10.63;;
60352;SDS011;46196;52.970;6.954;2023-06-10T05:24:03;22.25;;;11.13;;
60352;SDS011;46196;52.970;6.954;2023-06-10T05:26:29;20.20;;;10.07;;
60352;SDS011;46196;52.970;6.954;2023-06-10T05:28:56;22.67;;;9.35;;
60352;SDS011;46196;52.970;6.954;2023-06-10T05:31:23;20.55;;;9.30;;
60352;SDS011;46196;52.970;6.954;2023-06-10T05:33:48;21.50;;;9.73;;
60352;SDS011;46196;52.970;6.954;2023-06-10T05:36:14;16.00;;;8.55;;
60352;SDS011;46196;52.970;6.954;2023-06-10T05:38:40;20.67;;;10.07;;
60352;SDS011;46196;52.970;6.954;2023-06-10T05:41:06;20.50;;;9.05;;
60352;SDS011;46196;52.970;6.954;2023-06-10T05:43:31;18.83;;;9.05;;
60352;SDS011;46196;52.970;6.954;2023-06-10T05:45:57;17.75;;;9.65;;
60352;SDS011;46196;52.970;6.954;2023-06-10T05:48:23;19.38;;;9.15;;
60352;SDS011;46196;52.970;6.954;2023-06-10T05:50:48;16.70;;;9.55;;
60352;SDS011;46196;52.970;6.954;2023-06-10T05:53:14;20.52;;;9.40;;
60352;SDS011;46196;52.970;6.954;2023-06-10T05:55:42;17.55;;;9.30;;
60352;SDS011;46196;52.970;6.954;2023-06-10T05:58:08;18.88;;;8.77;;
60352;SDS011;46196;52.970;6.954;2023-06-10T06:00:34;17.27;;;8.73;;
60352;SDS011;46196;52.970;6.954;2023-06-10T06:03:00;16.23;;;9.35;;
60352;SDS011;46196;52.970;6.954;2023-06-10T06:05:26;17.23;;;8.98;;
60352;SDS011;46196;52.970;6.954;2023-06-10T06:07:51;17.40;;;9.20;;
60352;SDS011;46196;52.970;6.954;2023-06-10T06:10:17;25.50;;;9.80;;
60352;SDS011;46196;52.970;6.954;2023-06-10T06:12:44;21.20;;;10.27;;
60352;SDS011;46196;52.970;6.954;2023-06-10T06:15:10;21.50;;;9.57;;
60352;SDS011;46196;52.970;6.954;2023-06-10T06:17:36;20.83;;;10.38;;
60352;SDS011;46196;52.970;6.954;2023-06-10T06:20:02;20.35;;;11.07;;
60352;SDS011;46196;52.970;6.954;2023-06-10T06:22:28;17.27;;;10.50;;
60352;SDS011;46196;52.970;6.954;2023-06-10T06:24:54;19.75;;;10.73;;
60352;SDS011;46196;52.970;6.954;2023-06-10T06:27:20;20.73;;;10.77;;
60352;SDS011;46196;52.970;6.954;2023-06-10T06:29:46;21.33;;;12.25;;
60352;SDS011;46196;52.970;6.954;2023-06-10T06:32:12;21.90;;;10.98;;
60352;SDS011;46196;52.970;6.954;2023-06-10T06:34:38;20.20;;;11.00;;
60352;SDS011;46196;52.970;6.954;2023-06-10T06:37:03;19.02;;;10.57;;
60352;SDS011;46196;52.970;6.954;2023-06-10T06:39:29;25.77;;;12.27;;
60352;SDS011;46196;52.970;6.954;2023-06-10T06:41:55;16.83;;;10.15;;
60352;SDS011;46196;52.970;6.954;2023-06-10T06:44:20;21.25;;;11.60;;
60352;SDS011;46196;52.970;6.954;2023-06-10T06:46:46;17.77;;;10.88;;
60352;SDS011;46196;52.970;6.954;2023-06-10T06:49:11;28.90;;;11.30;;
60352;SDS011;46196;52.970;6.954;2023-06-10T06:51:37;19.85;;;10.98;;
60352;SDS011;46196;52.970;6.954;2023-06-10T06:54:03;20.13;;;10.60;;
60352;SDS011;46196;52.970;6.954;2023-06-10T06:56:30;16.48;;;10.88;;
60352;SDS011;46196;52.970;6.954;2023-06-10T06:58:56;21.88;;;11.10;;
60352;SDS011;46196;52.970;6.954;2023-06-10T07:01:21;18.90;;;10.32;;
60352;SDS011;46196;52.970;6.954;2023-06-10T07:03:47;20.30;;;10.05;;
60352;SDS011;46196;52.970;6.954;2023-06-10T07:06:13;18.30;;;10.00;;
60352;SDS011;46196;52.970;6.954;2023-06-10T07:08:39;16.67;;;9.32;;
60352;SDS011;46196;52.970;6.954;2023-06-10T07:11:04;22.20;;;9.93;;
60352;SDS011;46196;52.970;6.954;2023-06-10T07:13:30;22.65;;;10.43;;
60352;SDS011;46196;52.970;6.954;2023-06-10T07:15:56;17.17;;;10.00;;
60352;SDS011;46196;52.970;6.954;2023-06-10T07:18:21;15.23;;;9.85;;
60352;SDS011;46196;52.970;6.954;2023-06-10T07:20:47;25.23;;;10.07;;
60352;SDS011;46196;52.970;6.954;2023-06-10T07:23:12;16.55;;;9.93;;
60352;SDS011;46196;52.970;6.954;2023-06-10T07:25:38;16.83;;;9.48;;
60352;SDS011;46196;52.970;6.954;2023-06-10T07:28:04;17.67;;;9.88;;
60352;SDS011;46196;52.970;6.954;2023-06-10T07:30:29;16.88;;;9.43;;
60352;SDS011;46196;52.970;6.954;2023-06-10T07:32:55;17.38;;;9.80;;
60352;SDS011;46196;52.970;6.954;2023-06-10T07:35:21;22.75;;;9.57;;
60352;SDS011;46196;52.970;6.954;2023-06-10T07:37:46;21.45;;;10.32;;
60352;SDS011;46196;52.970;6.954;2023-06-10T07:40:12;15.93;;;10.15;;
60352;SDS011;46196;52.970;6.954;2023-06-10T07:42:38;19.15;;;10.35;;
60352;SDS011;46196;52.970;6.954;2023-06-10T07:45:04;19.83;;;10.00;;
60352;SDS011;46196;52.970;6.954;2023-06-10T07:47:30;20.85;;;10.18;;
60352;SDS011;46196;52.970;6.954;2023-06-10T07:49:58;18.27;;;10.27;;
60352;SDS011;46196;52.970;6.954;2023-06-10T07:52:24;17.70;;;10.45;;
60352;SDS011;46196;52.970;6.954;2023-06-10T07:54:50;18.60;;;10.15;;
60352;SDS011;46196;52.970;6.954;2023-06-10T07:57:17;16.55;;;9.77;;
60352;SDS011;46196;52.970;6.954;2023-06-10T07:59:42;20.08;;;10.63;;
60352;SDS011;46196;52.970;6.954;2023-06-10T08:02:09;19.13;;;9.75;;
60352;SDS011;46196;52.970;6.954;2023-06-10T08:04:35;15.43;;;10.10;;
60352;SDS011;46196;52.970;6.954;2023-06-10T08:07:00;23.02;;;10.23;;
60352;SDS011;46196;52.970;6.954;2023-06-10T08:09:27;18.27;;;9.27;;
60352;SDS011;46196;52.970;6.954;2023-06-10T08:11:53;17.30;;;9.05;;
60352;SDS011;46196;52.970;6.954;2023-06-10T08:14:18;20.88;;;9.68;;
60352;SDS011;46196;52.970;6.954;2023-06-10T08:16:44;19.38;;;9.32;;
60352;SDS011;46196;52.970;6.954;2023-06-10T08:19:10;18.23;;;10.18;;
60352;SDS011;46196;52.970;6.954;2023-06-10T08:21:36;20.60;;;9.07;;
60352;SDS011;46196;52.970;6.954;2023-06-10T08:24:02;18.02;;;9.18;;
60352;SDS011;46196;52.970;6.954;2023-06-10T08:26:28;16.85;;;9.73;;
60352;SDS011;46196;52.970;6.954;2023-06-10T08:28:54;17.45;;;9.30;;
60352;SDS011;46196;52.970;6.954;2023-06-10T08:31:20;23.30;;;10.13;;
60352;SDS011;46196;52.970;6.954;2023-06-10T08:33:46;17.98;;;9.38;;
60352;SDS011;46196;52.970;6.954;2023-06-10T08:36:12;17.20;;;9.77;;
60352;SDS011;46196;52.970;6.954;2023-06-10T08:38:38;19.67;;;9.85;;
60352;SDS011;46196;52.970;6.954;2023-06-10T08:41:04;21.83;;;9.65;;
60352;SDS011;46196;52.970;6.954;2023-06-10T08:45:59;17.73;;;9.25;;
60352;SDS011;46196;52.970;6.954;2023-06-10T08:48:27;16.25;;;9.43;;
60352;SDS011;46196;52.970;6.954;2023-06-10T08:50:56;15.07;;;9.15;;
60352;SDS011;46196;52.970;6.954;2023-06-10T08:53:23;20.30;;;9.15;;
60352;SDS011;46196;52.970;6.954;2023-06-10T08:55:50;17.27;;;9.40;;
60352;SDS011;46196;52.970;6.954;2023-06-10T08:58:19;19.25;;;9.13;;
60352;SDS011;46196;52.970;6.954;2023-06-10T09:00:45;15.68;;;9.32;;
60352;SDS011;46196;52.970;6.954;2023-06-10T09:03:11;17.40;;;9.43;;
60352;SDS011;46196;52.970;6.954;2023-06-10T09:05:37;16.17;;;8.63;;
60352;SDS011;46196;52.970;6.954;2023-06-10T09:08:04;19.80;;;9.52;;
60352;SDS011;46196;52.970;6.954;2023-06-10T09:10:31;20.37;;;9.50;;
60352;SDS011;46196;52.970;6.954;2023-06-10T09:12:57;19.42;;;8.80;;
60352;SDS011;46196;52.970;6.954;2023-06-10T09:15:23;16.63;;;8.77;;
60352;SDS011;46196;52.970;6.954;2023-06-10T09:17:49;16.95;;;8.15;;
60352;SDS011;46196;52.970;6.954;2023-06-10T09:20:16;19.25;;;8.55;;
60352;SDS011;46196;52.970;6.954;2023-06-10T09:22:42;13.43;;;8.35;;
60352;SDS011;46196;52.970;6.954;2023-06-10T09:25:11;16.25;;;8.38;;
60352;SDS011;46196;52.970;6.954;2023-06-10T09:27:47;11.23;;;7.25;;
60352;SDS011;46196;52.970;6.954;2023-06-10T09:30:28;18.50;;;7.47;;
60352;SDS011;46196;52.970;6.954;2023-06-10T09:32:55;20.38;;;8.48;;
60352;SDS011;46196;52.970;6.954;2023-06-10T09:35:22;13.98;;;7.32;;
60352;SDS011;46196;52.970;6.954;2023-06-10T09:37:53;19.52;;;8.23;;
60352;SDS011;46196;52.970;6.954;2023-06-10T09:40:20;15.75;;;7.50;;
60352;SDS011;46196;52.970;6.954;2023-06-10T09:42:46;17.40;;;7.85;;
60352;SDS011;46196;52.970;6.954;2023-06-10T09:45:19;18.30;;;8.20;;
60352;SDS011;46196;52.970;6.954;2023-06-10T09:47:46;12.63;;;6.68;;
60352;SDS011;46196;52.970;6.954;2023-06-10T09:50:12;12.07;;;7.40;;
60352;SDS011;46196;52.970;6.954;2023-06-10T09:52:38;13.70;;;7.22;;
60352;SDS011;46196;52.970;6.954;2023-06-10T09:55:04;10.32;;;7.22;;
60352;SDS011;46196;52.970;6.954;2023-06-10T09:57:33;14.68;;;7.30;;
60352;SDS011;46196;52.970;6.954;2023-06-10T10:00:03;14.35;;;7.90;;
60352;SDS011;46196;52.970;6.954;2023-06-10T10:02:30;14.50;;;8.32;;
60352;SDS011;46196;52.970;6.954;2023-06-10T10:05:02;13.25;;;6.90;;
60352;SDS011;46196;52.970;6.954;2023-06-10T10:07:29;13.70;;;7.30;;
60352;SDS011;46196;52.970;6.954;2023-06-10T10:09:55;13.23;;;7.25;;
60352;SDS011;46196;52.970;6.954;2023-06-10T10:12:21;15.35;;;7.50;;
60352;SDS011;46196;52.970;6.954;2023-06-10T10:14:47;10.23;;;6.68;;
60352;SDS011;46196;52.970;6.954;2023-06-10T10:17:14;10.45;;;6.22;;
60352;SDS011;46196;52.970;6.954;2023-06-10T10:19:43;12.52;;;6.95;;
60352;SDS011;46196;52.970;6.954;2023-06-10T10:22:18;10.73;;;6.80;;
60352;SDS011;46196;52.970;6.954;2023-06-10T10:24:59;11.45;;;7.00;;
60352;SDS011;46196;52.970;6.954;2023-06-10T10:27:28;11.07;;;6.70;;
60352;SDS011;46196;52.970;6.954;2023-06-10T10:29:58;15.48;;;6.85;;
60352;SDS011;46196;52.970;6.954;2023-06-10T10:32:32;13.27;;;6.68;;
60352;SDS011;46196;52.970;6.954;2023-06-10T10:35:07;13.48;;;7.18;;
60352;SDS011;46196;52.970;6.954;2023-06-10T10:37:35;12.82;;;7.18;;
60352;SDS011;46196;52.970;6.954;2023-06-10T10:40:01;13.35;;;7.28;;
60352;SDS011;46196;52.970;6.954;2023-06-10T10:42:28;12.68;;;6.35;;
60352;SDS011;46196;52.970;6.954;2023-06-10T10:44:55;14.15;;;7.20;;
60352;SDS011;46196;52.970;6.954;2023-06-10T10:47:21;12.30;;;6.90;;
60352;SDS011;46196;52.970;6.954;2023-06-10T10:49:50;11.60;;;7.28;;
60352;SDS011;46196;52.970;6.954;2023-06-10T10:52:20;17.95;;;7.25;;
60352;SDS011;46196;52.970;6.954;2023-06-10T10:54:46;11.23;;;7.00;;
60352;SDS011;46196;52.970;6.954;2023-06-10T10:57:13;14.10;;;6.57;;
60352;SDS011;46196;52.970;6.954;2023-06-10T11:00:02;12.88;;;6.50;;
60352;SDS011;46196;52.970;6.954;2023-06-10T11:02:42;12.43;;;6.20;;
60352;SDS011;46196;52.970;6.954;2023-06-10T11:05:12;8.80;;;6.15;;
60352;SDS011;46196;52.970;6.954;2023-06-10T11:07:39;18.70;;;6.70;;
60352;SDS011;46196;52.970;6.954;2023-06-10T11:10:08;14.63;;;6.60;;
60352;SDS011;46196;52.970;6.954;2023-06-10T11:15:11;14.55;;;6.18;;
60352;SDS011;46196;52.970;6.954;2023-06-10T11:20:44;12.38;;;6.35;;
60352;SDS011;46196;52.970;6.954;2023-06-10T11:29:00;10.82;;;5.65;;
60352;SDS011;46196;52.970;6.954;2023-06-10T11:31:38;12.65;;;5.95;;
60352;SDS011;46196;52.970;6.954;2023-06-10T11:34:08;10.35;;;6.40;;
60352;SDS011;46196;52.970;6.954;2023-06-10T11:36:36;13.38;;;5.80;;
60352;SDS011;46196;52.970;6.954;2023-06-10T11:39:05;14.65;;;6.35;;
60352;SDS011;46196;52.970;6.954;2023-06-10T11:41:32;11.32;;;5.28;;
60352;SDS011;46196;52.970;6.954;2023-06-10T11:44:12;10.65;;;5.43;;
60352;SDS011;46196;52.970;6.954;2023-06-10T11:46:38;12.82;;;5.97;;
60352;SDS011;46196;52.970;6.954;2023-06-10T11:49:07;11.68;;;5.38;;
60352;SDS011;46196;52.970;6.954;2023-06-10T11:51:37;9.63;;;5.20;;
60352;SDS011;46196;52.970;6.954;2023-06-10T11:54:04;10.43;;;6.10;;
60352;SDS011;46196;52.970;6.954;2023-06-10T11:56:30;11.70;;;6.22;;
60352;SDS011;46196;52.970;6.954;2023-06-10T11:58:58;10.68;;;6.20;;
60352;SDS011;46196;52.970;6.954;2023-06-10T12:01:36;10.65;;;5.80;;
60352;SDS011;46196;52.970;6.954;2023-06-10T12:04:10;11.15;;;6.35;;
60352;SDS011;46196;52.970;6.954;2023-06-10T12:09:25;9.55;;;5.38;;
60352;SDS011;46196;52.970;6.954;2023-06-10T12:11:54;10.23;;;5.00;;
60352;SDS011;46196;52.970;6.954;2023-06-10T12:20:08;11.10;;;5.88;;
60352;SDS011;46196;52.970;6.954;2023-06-10T12:22:49;11.73;;;5.85;;
60352;SDS011;46196;52.970;6.954;2023-06-10T12:25:14;12.88;;;5.90;;
60352;SDS011;46196;52.970;6.954;2023-06-10T12:27:41;13.40;;;6.03;;
60352;SDS011;46196;52.970;6.954;2023-06-10T12:30:20;12.20;;;5.93;;
60352;SDS011;46196;52.970;6.954;2023-06-10T12:32:48;11.63;;;6.20;;
60352;SDS011;46196;52.970;6.954;2023-06-10T12:35:16;10.70;;;5.93;;
60352;SDS011;46196;52.970;6.954;2023-06-10T12:37:43;12.90;;;5.82;;
60352;SDS011;46196;52.970;6.954;2023-06-10T12:40:27;13.65;;;5.90;;
60352;SDS011;46196;52.970;6.954;2023-06-10T12:42:54;10.00;;;6.17;;
60352;SDS011;46196;52.970;6.954;2023-06-10T12:45:29;14.48;;;5.55;;
60352;SDS011;46196;52.970;6.954;2023-06-10T12:50:42;10.57;;;5.72;;
60352;SDS011;46196;52.970;6.954;2023-06-10T12:53:08;13.25;;;6.25;;
60352;SDS011;46196;52.970;6.954;2023-06-10T12:55:36;14.73;;;6.00;;
60352;SDS011;46196;52.970;6.954;2023-06-10T12:58:02;11.70;;;6.75;;
60352;SDS011;46196;52.970;6.954;2023-06-10T13:00:28;12.68;;;5.50;;
60352;SDS011;46196;52.970;6.954;2023-06-10T13:03:00;11.18;;;5.65;;
60352;SDS011;46196;52.970;6.954;2023-06-10T13:05:26;13.07;;;4.80;;
60352;SDS011;46196;52.970;6.954;2023-06-10T13:07:52;9.65;;;5.07;;
60352;SDS011;46196;52.970;6.954;2023-06-10T13:10:21;8.95;;;5.70;;
60352;SDS011;46196;52.970;6.954;2023-06-10T13:12:47;11.88;;;5.35;;
60352;SDS011;46196;52.970;6.954;2023-06-10T13:15:13;8.93;;;5.30;;
60352;SDS011;46196;52.970;6.954;2023-06-10T13:17:39;11.43;;;5.38;;
60352;SDS011;46196;52.970;6.954;2023-06-10T13:20:06;14.75;;;5.20;;
60352;SDS011;46196;52.970;6.954;2023-06-10T13:22:33;9.43;;;5.55;;
60352;SDS011;46196;52.970;6.954;2023-06-10T13:25:00;11.00;;;5.65;;
60352;SDS011;46196;52.970;6.954;2023-06-10T13:27:26;11.00;;;5.25;;
60352;SDS011;46196;52.970;6.954;2023-06-10T13:29:52;10.65;;;5.25;;
60352;SDS011;46196;52.970;6.954;2023-06-10T13:32:18;12.30;;;5.90;;
60352;SDS011;46196;52.970;6.954;2023-06-10T13:34:44;9.50;;;4.95;;
60352;SDS011;46196;52.970;6.954;2023-06-10T13:37:10;12.52;;;5.32;;
60352;SDS011;46196;52.970;6.954;2023-06-10T13:39:37;9.40;;;4.82;;
60352;SDS011;46196;52.970;6.954;2023-06-10T13:42:03;12.57;;;6.32;;
60352;SDS011;46196;52.970;6.954;2023-06-10T13:44:29;14.13;;;5.57;;
60352;SDS011;46196;52.970;6.954;2023-06-10T13:46:58;10.20;;;5.00;;
60352;SDS011;46196;52.970;6.954;2023-06-10T13:49:25;11.10;;;5.38;;
60352;SDS011;46196;52.970;6.954;2023-06-10T13:51:51;15.98;;;5.55;;
60352;SDS011;46196;52.970;6.954;2023-06-10T13:54:16;18.38;;;6.18;;
60352;SDS011;46196;52.970;6.954;2023-06-10T13:56:42;10.23;;;5.70;;
60352;SDS011;46196;52.970;6.954;2023-06-10T13:59:08;9.88;;;5.10;;
60352;SDS011;46196;52.970;6.954;2023-06-10T14:01:34;12.55;;;5.60;;
60352;SDS011;46196;52.970;6.954;2023-06-10T14:03:59;13.50;;;6.43;;
60352;SDS011;46196;52.970;6.954;2023-06-10T14:06:25;12.07;;;5.63;;
60352;SDS011;46196;52.970;6.954;2023-06-10T14:08:51;10.57;;;5.07;;
60352;SDS011;46196;52.970;6.954;2023-06-10T14:11:19;9.80;;;5.40;;
60352;SDS011;46196;52.970;6.954;2023-06-10T14:13:46;9.18;;;4.45;;
60352;SDS011;46196;52.970;6.954;2023-06-10T14:16:11;8.60;;;4.40;;
60352;SDS011;46196;52.970;6.954;2023-06-10T14:18:37;8.52;;;4.15;;
60352;SDS011;46196;52.970;6.954;2023-06-10T14:21:03;8.98;;;4.82;;
60352;SDS011;46196;52.970;6.954;2023-06-10T14:23:28;10.77;;;4.35;;
60352;SDS011;46196;52.970;6.954;2023-06-10T14:25:54;10.77;;;4.82;;
60352;SDS011;46196;52.970;6.954;2023-06-10T14:28:20;7.97;;;5.13;;
60352;SDS011;46196;52.970;6.954;2023-06-10T14:30:46;8.15;;;5.18;;
60352;SDS011;46196;52.970;6.954;2023-06-10T14:33:11;11.35;;;4.78;;
60352;SDS011;46196;52.970;6.954;2023-06-10T14:35:37;7.47;;;4.68;;
60352;SDS011;46196;52.970;6.954;2023-06-10T14:38:03;8.52;;;4.78;;
60352;SDS011;46196;52.970;6.954;2023-06-10T14:40:29;8.80;;;4.30;;
60352;SDS011;46196;52.970;6.954;2023-06-10T14:42:55;10.23;;;4.82;;
60352;SDS011;46196;52.970;6.954;2023-06-10T14:45:21;8.07;;;4.80;;
60352;SDS011;46196;52.970;6.954;2023-06-10T14:47:46;8.60;;;4.57;;
60352;SDS011;46196;52.970;6.954;2023-06-10T14:50:13;7.05;;;4.70;;
60352;SDS011;46196;52.970;6.954;2023-06-10T14:52:39;12.07;;;4.72;;
60352;SDS011;46196;52.970;6.954;2023-06-10T14:55:05;10.20;;;5.10;;
60352;SDS011;46196;52.970;6.954;2023-06-10T14:57:31;8.30;;;4.90;;
60352;SDS011;46196;52.970;6.954;2023-06-10T14:59:56;7.82;;;5.18;;